EAR weather

Kearney Regional Airport
Kearney, Nebraska, United States

Public forecast

Using degrees Fahrenheit for public forecast. Weather courtesy of forecast.io.

Current aviation weather report (METAR) for Kearney Regional Airport

Retrieved 2020/04/06 15:56 UTC (1 hour ago):

KEAR 061556Z AUTO 18007KT 140V200 10SM SCT014 BKN027 16/11 A2978 RMK AO2 SLP083 T01560111

Aviation forecast (TAF) for Kearney Regional Airport

Retrieved 2020/04/06 12:42 UTC (4 hours ago):

TAF KEAR 061141Z 0612/0712 15007KT 6SM HZ OVC016 TEMPO 0613/0616 3SM BR OVC009 FM061600 17007KT P6SM BKN015 FM061700 18008KT P6SM SCT020 FM061800 18007KT P6SM SKC FM070100 VRB05KT P6SM SKC FM070900 25006KT P6SM SKC